Tanja Jacob — A8YR7 — position and weather

sailwx.info

Track history (hours):
 
Tides and Currents Weather Stations Pressure Air Temp Water Temp Dewpoint Dewpoint Depression Visibility Wind Speed Wind Dir Waves Ship Positions

Tanja Jacob

Last reported at 2017-Aug-19 18:33 UTC. Time now 2017-Aug-19 20:35 UTC.
Position N 34°13' E 031°12'.

Length 227 m; draft 8.3 m.

Type: Ship. MMSI: 636092217.

Date/timePositionNaut miles runAvg speedWind from/ knotsBaromVisibWave heightAir tempDewpointWater temp
2017-Aug-19 18:33N 34°13' E 031°12'110.7
2017-Aug-19 18:27N 34°13' E 031°14'510.7
2017-Aug-19 18:00N 34°13' E 031°19'910.9
2017-Aug-19 17:10N 34°12' E 031°30'610.8
2017-Aug-19 16:35N 34°12' E 031°38'110.8
2017-Aug-19 16:30N 34°12' E 031°39'611.0
2017-Aug-19 16:00N 34°11' E 031°46'611.9
2017-Aug-19 15:30N 34°11' E 031°53'2911.3
2017-Aug-19 12:55N 34°09' E 032°28'  
2017-Aug-16 20:45N 33°39' E 035°24'0 0.0
2017-Aug-16 20:12N 33°39' E 035°24'0 0.0
2017-Aug-16 20:00N 33°39' E 035°24'0 0.0
2017-Aug-16 15:40N 33°39' E 035°24'0 0.0
2017-Aug-16 14:21N 33°39' E 035°24'0 0.0
2017-Aug-16 14:00N 33°39' E 035°24'0 0.0
2017-Aug-16 13:28N 33°39' E 035°24'0 0.1
2017-Aug-16 12:58N 33°39' E 035°24'0 0.2
2017-Aug-16 12:23N 33°39' E 035°24'1 1.5
2017-Aug-16 11:52N 33°40' E 035°24'0 0.8
2017-Aug-16 11:31N 33°40' E 035°23'0 0.2
2017-Aug-16 10:48N 33°40' E 035°24'0 0.0
2017-Aug-16 10:29N 33°40' E 035°24'0 0.0
2017-Aug-15 22:45N 33°40' E 035°24'0 0.0
2017-Aug-15 21:48N 33°40' E 035°24'0 0.0
2017-Aug-15 19:32N 33°40' E 035°24'  
2017-Aug-12 00:24N 34°01' E 034°44'410.7
2017-Aug-12 00:00N 34°02' E 034°39'1310.7
2017-Aug-11 22:50N 34°06' E 034°25'411.0
2017-Aug-11 22:30N 34°07' E 034°21'611.1
2017-Aug-11 22:00N 34°09' E 034°14'711.3
2017-Aug-11 21:25N 34°10' E 034°06'4311.3
2017-Aug-11 17:38N 34°27' E 033°19'1 7.4
2017-Aug-11 17:29N 34°28' E 033°18'2 3.4
2017-Aug-11 17:00N 34°29' E 033°17'0 0.2
2017-Aug-11 16:30N 34°30' E 033°17'0 0.1
2017-Aug-11 16:00N 34°30' E 033°17'0 0.1
2017-Aug-11 15:30N 34°30' E 033°17'0 0.1
2017-Aug-11 15:01N 34°30' E 033°17'0 0.1
2017-Aug-11 14:30N 34°30' E 033°17'1 0.8
2017-Aug-11 13:08N 34°29' E 033°18'0 0.3
2017-Aug-11 12:55N 34°30' E 033°18'0 0.3
2017-Aug-11 12:30N 34°30' E 033°18'0 0.3
2017-Aug-11 12:00N 34°30' E 033°18'0 0.4
2017-Aug-11 11:30N 34°30' E 033°18'0 0.4
2017-Aug-11 10:50N 34°30' E 033°17'0 0.4
2017-Aug-11 10:30N 34°30' E 033°17'0 0.2
2017-Aug-11 10:00N 34°30' E 033°17'1 1.3
2017-Aug-11 09:30N 34°30' E 033°18'2 3.4
2017-Aug-11 08:59N 34°30' E 033°20'2 4.6
2017-Aug-11 08:30N 34°30' E 033°23'7 0.6
2017-Aug-10 20:04N 34°29' E 033°31'0 0.3
2017-Aug-10 19:38N 34°29' E 033°31'0 0.3
2017-Aug-10 19:11N 34°30' E 033°31'0 0.4
2017-Aug-10 19:00N 34°30' E 033°31'0 0.4
2017-Aug-10 18:29N 34°30' E 033°31'0 0.5
2017-Aug-10 18:00N 34°30' E 033°31'0 0.6
2017-Aug-10 17:18N 34°30' E 033°30'0 0.7
2017-Aug-10 17:00N 34°30' E 033°30'0 0.7
2017-Aug-10 16:30N 34°31' E 033°30'0 0.7
2017-Aug-10 16:00N 34°31' E 033°30'0 0.7
2017-Aug-10 15:22N 34°31' E 033°29'0 0.7
2017-Aug-10 15:00N 34°31' E 033°29'0 0.8
2017-Aug-10 14:23N 34°32' E 033°29'2 0.6
2017-Aug-10 11:33N 34°32' E 033°26'0 0.6
2017-Aug-10 11:30N 34°32' E 033°26'0 0.5
2017-Aug-10 10:59N 34°32' E 033°26'2 2.4
2017-Aug-10 10:02N 34°32' E 033°23'0 6.3
2017-Aug-10 10:00N 34°31' E 033°23'4 4.5
2017-Aug-10 09:11N 34°30' E 033°19'0 2.4
2017-Aug-10 09:00N 34°30' E 033°20'0 0.6
2017-Aug-10 08:30N 34°30' E 033°19'0 0.5
2017-Aug-10 08:00N 34°30' E 033°19'0 0.5
2017-Aug-10 07:30N 34°30' E 033°19'0 0.4
2017-Aug-10 07:00N 34°30' E 033°18'0 0.7
2017-Aug-10 06:30N 34°30' E 033°18'3 5.3
2017-Aug-10 05:59N 34°31' E 033°21'1 1.1
2017-Aug-10 05:27N 34°31' E 033°22'0 0.5
2017-Aug-10 04:57N 34°31' E 033°22'0 0.5
2017-Aug-10 04:30N 34°31' E 033°22'0 0.5
2017-Aug-10 04:00N 34°30' E 033°22'0 0.5
2017-Aug-10 03:22N 34°30' E 033°22'0 0.5
2017-Aug-10 02:34N 34°30' E 033°21'0 0.5
2017-Aug-10 02:30N 34°30' E 033°21'0 0.5
2017-Aug-10 02:00N 34°29' E 033°21'0 0.4
2017-Aug-10 01:29N 34°29' E 033°21'0 0.4
2017-Aug-10 01:00N 34°29' E 033°21'0 0.4
2017-Aug-10 00:30N 34°29' E 033°21'0 0.3
2017-Aug-10 00:00N 34°29' E 033°21'0 0.2
2017-Aug-09 23:30N 34°29' E 033°21'0 0.3
2017-Aug-09 23:00N 34°28' E 033°21'0 0.3
2017-Aug-09 22:30N 34°28' E 033°21'0 0.3
2017-Aug-09 22:00N 34°28' E 033°21'0 0.3
2017-Aug-09 21:30N 34°28' E 033°21'0 0.4
2017-Aug-09 21:00N 34°28' E 033°20'0 0.5
2017-Aug-09 20:30N 34°28' E 033°20'0 0.6
2017-Aug-09 20:00N 34°28' E 033°20'0 0.6
2017-Aug-09 19:30N 34°28' E 033°19'0 0.6
2017-Aug-09 19:00N 34°28' E 033°19'  
Track history (hours):
 
Tides and Currents Weather Stations Pressure Air Temp Water Temp Dewpoint Dewpoint Depression Visibility Wind Speed Wind Dir Waves Ship Positions

Tanja Jacob

Last reported at 2017-Aug-19 18:33 UTC. Time now 2017-Aug-19 20:35 UTC.
Position N 34°13' E 031°12'.

Length 227 m; draft 8.3 m.

Type: Ship. MMSI: 636092217.

Date/timePositionNaut miles runAvg speedWind from/ knotsBaromVisibWave heightAir tempDewpointWater temp
2017-Aug-19 18:33N 34°13' E 031°12'110.7
2017-Aug-19 18:27N 34°13' E 031°14'510.7
2017-Aug-19 18:00N 34°13' E 031°19'910.9
2017-Aug-19 17:10N 34°12' E 031°30'610.8
2017-Aug-19 16:35N 34°12' E 031°38'110.8
2017-Aug-19 16:30N 34°12' E 031°39'611.0
2017-Aug-19 16:00N 34°11' E 031°46'611.9
2017-Aug-19 15:30N 34°11' E 031°53'2911.3
2017-Aug-19 12:55N 34°09' E 032°28'  
2017-Aug-16 20:45N 33°39' E 035°24'0 0.0
2017-Aug-16 20:12N 33°39' E 035°24'0 0.0
2017-Aug-16 20:00N 33°39' E 035°24'0 0.0
2017-Aug-16 15:40N 33°39' E 035°24'0 0.0
2017-Aug-16 14:21N 33°39' E 035°24'0 0.0
2017-Aug-16 14:00N 33°39' E 035°24'0 0.0
2017-Aug-16 13:28N 33°39' E 035°24'0 0.1
2017-Aug-16 12:58N 33°39' E 035°24'0 0.2
2017-Aug-16 12:23N 33°39' E 035°24'1 1.5
2017-Aug-16 11:52N 33°40' E 035°24'0 0.8
2017-Aug-16 11:31N 33°40' E 035°23'0 0.2
2017-Aug-16 10:48N 33°40' E 035°24'0 0.0
2017-Aug-16 10:29N 33°40' E 035°24'0 0.0
2017-Aug-15 22:45N 33°40' E 035°24'0 0.0
2017-Aug-15 21:48N 33°40' E 035°24'0 0.0
2017-Aug-15 19:32N 33°40' E 035°24'  
2017-Aug-12 00:24N 34°01' E 034°44'410.7
2017-Aug-12 00:00N 34°02' E 034°39'1310.7
2017-Aug-11 22:50N 34°06' E 034°25'411.0
2017-Aug-11 22:30N 34°07' E 034°21'611.1
2017-Aug-11 22:00N 34°09' E 034°14'711.3
2017-Aug-11 21:25N 34°10' E 034°06'4311.3
2017-Aug-11 17:38N 34°27' E 033°19'1 7.4
2017-Aug-11 17:29N 34°28' E 033°18'2 3.4
2017-Aug-11 17:00N 34°29' E 033°17'0 0.2
2017-Aug-11 16:30N 34°30' E 033°17'0 0.1
2017-Aug-11 16:00N 34°30' E 033°17'0 0.1
2017-Aug-11 15:30N 34°30' E 033°17'0 0.1
2017-Aug-11 15:01N 34°30' E 033°17'0 0.1
2017-Aug-11 14:30N 34°30' E 033°17'1 0.8
2017-Aug-11 13:08N 34°29' E 033°18'0 0.3
2017-Aug-11 12:55N 34°30' E 033°18'0 0.3
2017-Aug-11 12:30N 34°30' E 033°18'0 0.3
2017-Aug-11 12:00N 34°30' E 033°18'0 0.4
2017-Aug-11 11:30N 34°30' E 033°18'0 0.4
2017-Aug-11 10:50N 34°30' E 033°17'0 0.4
2017-Aug-11 10:30N 34°30' E 033°17'0 0.2
2017-Aug-11 10:00N 34°30' E 033°17'1 1.3
2017-Aug-11 09:30N 34°30' E 033°18'2 3.4
2017-Aug-11 08:59N 34°30' E 033°20'2 4.6
2017-Aug-11 08:30N 34°30' E 033°23'7 0.6
2017-Aug-10 20:04N 34°29' E 033°31'0 0.3
2017-Aug-10 19:38N 34°29' E 033°31'0 0.3
2017-Aug-10 19:11N 34°30' E 033°31'0 0.4
2017-Aug-10 19:00N 34°30' E 033°31'0 0.4
2017-Aug-10 18:29N 34°30' E 033°31'0 0.5
2017-Aug-10 18:00N 34°30' E 033°31'0 0.6
2017-Aug-10 17:18N 34°30' E 033°30'0 0.7
2017-Aug-10 17:00N 34°30' E 033°30'0 0.7
2017-Aug-10 16:30N 34°31' E 033°30'0 0.7
2017-Aug-10 16:00N 34°31' E 033°30'0 0.7
2017-Aug-10 15:22N 34°31' E 033°29'0 0.7
2017-Aug-10 15:00N 34°31' E 033°29'0 0.8
2017-Aug-10 14:23N 34°32' E 033°29'2 0.6
2017-Aug-10 11:33N 34°32' E 033°26'0 0.6
2017-Aug-10 11:30N 34°32' E 033°26'0 0.5
2017-Aug-10 10:59N 34°32' E 033°26'2 2.4
2017-Aug-10 10:02N 34°32' E 033°23'0 6.3
2017-Aug-10 10:00N 34°31' E 033°23'4 4.5
2017-Aug-10 09:11N 34°30' E 033°19'0 2.4
2017-Aug-10 09:00N 34°30' E 033°20'0 0.6
2017-Aug-10 08:30N 34°30' E 033°19'0 0.5
2017-Aug-10 08:00N 34°30' E 033°19'0 0.5
2017-Aug-10 07:30N 34°30' E 033°19'0 0.4
2017-Aug-10 07:00N 34°30' E 033°18'0 0.7
2017-Aug-10 06:30N 34°30' E 033°18'3 5.3
2017-Aug-10 05:59N 34°31' E 033°21'1 1.1
2017-Aug-10 05:27N 34°31' E 033°22'0 0.5
2017-Aug-10 04:57N 34°31' E 033°22'0 0.5
2017-Aug-10 04:30N 34°31' E 033°22'0 0.5
2017-Aug-10 04:00N 34°30' E 033°22'0 0.5
2017-Aug-10 03:22N 34°30' E 033°22'0 0.5
2017-Aug-10 02:34N 34°30' E 033°21'0 0.5
2017-Aug-10 02:30N 34°30' E 033°21'0 0.5
2017-Aug-10 02:00N 34°29' E 033°21'0 0.4
2017-Aug-10 01:29N 34°29' E 033°21'0 0.4
2017-Aug-10 01:00N 34°29' E 033°21'0 0.4
2017-Aug-10 00:30N 34°29' E 033°21'0 0.3
2017-Aug-10 00:00N 34°29' E 033°21'0 0.2
2017-Aug-09 23:30N 34°29' E 033°21'0 0.3
2017-Aug-09 23:00N 34°28' E 033°21'0 0.3
2017-Aug-09 22:30N 34°28' E 033°21'0 0.3
2017-Aug-09 22:00N 34°28' E 033°21'0 0.3
2017-Aug-09 21:30N 34°28' E 033°21'0 0.4
2017-Aug-09 21:00N 34°28' E 033°20'0 0.5
2017-Aug-09 20:30N 34°28' E 033°20'0 0.6
2017-Aug-09 20:00N 34°28' E 033°20'0 0.6
2017-Aug-09 19:30N 34°28' E 033°19'0 0.6
2017-Aug-09 19:00N 34°28' E 033°19'  

Dump ship's entire track history